createdAt,value
2018-09-19T00:01:56.837Z,6.03
2018-09-19T00:04:26.664Z,7.10
2018-09-19T00:06:56.351Z,7.33
2018-09-19T00:09:26.199Z,6.80
2018-09-19T00:11:55.907Z,7.57
2018-09-19T00:14:25.713Z,6.83
2018-09-19T00:16:55.505Z,7.53
2018-09-19T00:19:25.407Z,6.17
2018-09-19T00:21:55.200Z,7.33
2018-09-19T00:24:24.926Z,6.47
2018-09-19T00:26:54.755Z,5.90
2018-09-19T00:29:24.607Z,6.07
2018-09-19T00:31:54.382Z,7.73
2018-09-19T00:34:24.189Z,7.20
2018-09-19T00:36:54.255Z,7.57
2018-09-19T00:39:24.025Z,7.87
2018-09-19T00:41:53.850Z,7.83
2018-09-19T00:44:23.661Z,7.03
2018-09-19T00:46:53.438Z,6.67
2018-09-19T00:49:23.310Z,7.50
2018-09-19T00:51:53.093Z,7.47
2018-09-19T00:54:22.913Z,7.00
2018-09-19T00:56:53.025Z,6.97
2018-09-19T00:59:22.734Z,7.50
2018-09-19T01:01:52.498Z,8.70
2018-09-19T01:04:22.331Z,8.57
2018-09-19T01:06:52.372Z,11.63
2018-09-19T01:09:22.048Z,11.07
2018-09-19T01:11:51.759Z,10.57
2018-09-19T01:14:21.571Z,10.20
2018-09-19T01:16:51.378Z,9.20
2018-09-19T01:19:21.253Z,7.97
2018-09-19T01:21:51.295Z,8.33
2018-09-19T01:24:21.056Z,8.53
2018-09-19T01:26:50.827Z,8.37
2018-09-19T01:29:20.614Z,8.20
2018-09-19T01:31:50.488Z,8.93
2018-09-19T01:34:20.302Z,8.20
2018-09-19T01:36:50.040Z,8.00
2018-09-19T01:39:19.823Z,8.50
2018-09-19T01:41:49.534Z,6.57
2018-09-19T01:44:19.396Z,7.13
2018-09-19T01:46:49.204Z,7.93
2018-09-19T01:49:19.074Z,10.17
2018-09-19T01:51:52.856Z,10.03
2018-09-19T01:54:23.161Z,9.20
2018-09-19T01:56:53.275Z,10.13
2018-09-19T01:59:23.332Z,9.60
2018-09-19T02:01:53.619Z,9.47
2018-09-19T02:04:23.374Z,9.97
2018-09-19T02:06:53.119Z,9.10
2018-09-19T02:09:23.003Z,9.73
2018-09-19T02:11:52.957Z,9.40
2018-09-19T02:14:22.846Z,9.83
2018-09-19T02:16:52.722Z,10.20
2018-09-19T02:19:23.050Z,9.27
2018-09-19T02:21:53.684Z,9.07
2018-09-19T02:24:24.282Z,8.20
2018-09-19T02:26:54.592Z,8.97
2018-09-19T02:29:25.321Z,7.70
2018-09-19T02:31:55.823Z,7.87
2018-09-19T02:34:26.355Z,8.30
2018-09-19T02:36:56.794Z,8.77
2018-09-19T02:39:27.234Z,8.47
2018-09-19T02:41:57.367Z,9.00
2018-09-19T02:44:27.244Z,11.40
2018-09-19T02:46:56.952Z,8.90
2018-09-19T02:49:26.821Z,9.83
2018-09-19T02:51:58.782Z,11.00
2018-09-19T02:54:30.773Z,8.33
2018-09-19T02:57:00.600Z,9.10
2018-09-19T02:59:30.695Z,8.70
2018-09-19T03:02:01.161Z,8.17
2018-09-19T03:04:30.899Z,9.90
2018-09-19T03:07:00.588Z,8.97
2018-09-19T03:09:30.292Z,9.87
2018-09-19T03:12:00.811Z,9.40
2018-09-19T03:14:31.261Z,10.83
2018-09-19T03:17:01.136Z,10.57
2018-09-19T03:19:30.915Z,11.37
2018-09-19T03:22:01.316Z,11.73
2018-09-19T03:24:31.169Z,11.87
2018-09-19T03:27:00.893Z,10.53
2018-09-19T03:29:30.651Z,10.30
2018-09-19T03:32:00.429Z,9.33
2018-09-19T03:34:30.136Z,10.10
2018-09-19T03:36:59.945Z,8.87
2018-09-19T03:39:29.754Z,9.43
2018-09-19T03:41:59.601Z,9.70
2018-09-19T03:44:29.401Z,8.13
2018-09-19T03:47:00.199Z,9.23
2018-09-19T03:49:30.281Z,9.37
2018-09-19T03:52:00.830Z,8.10
2018-09-19T03:54:30.662Z,7.63
2018-09-19T03:57:00.341Z,8.63
2018-09-19T03:59:30.265Z,9.37
2018-09-19T04:02:00.399Z,7.80
2018-09-19T04:04:30.151Z,7.43
2018-09-19T04:06:59.920Z,9.93
2018-09-19T04:09:29.724Z,9.77
2018-09-19T04:11:59.518Z,8.80
2018-09-19T04:14:29.363Z,10.17
2018-09-19T04:16:59.230Z,9.93
2018-09-19T04:19:28.962Z,8.13
2018-09-19T04:21:58.685Z,9.57
2018-09-19T04:24:28.394Z,8.73
2018-09-19T04:26:58.162Z,8.30
2018-09-19T04:29:27.888Z,9.90
2018-09-19T04:31:57.758Z,8.30
2018-09-19T04:34:27.658Z,8.13
2018-09-19T04:36:57.471Z,7.87
2018-09-19T04:39:27.395Z,8.57
2018-09-19T04:41:57.262Z,9.97
2018-09-19T04:44:27.116Z,10.13
2018-09-19T04:46:56.934Z,9.07
2018-09-19T04:49:26.671Z,8.60
2018-09-19T04:51:56.552Z,9.23
2018-09-19T04:54:26.345Z,8.90
2018-09-19T04:56:56.057Z,9.43
2018-09-19T04:59:25.823Z,9.50
2018-09-19T05:01:55.575Z,11.43
2018-09-19T05:04:25.600Z,10.40
2018-09-19T05:06:56.345Z,11.23
2018-09-19T05:09:26.818Z,11.00
2018-09-19T05:11:57.327Z,10.20
2018-09-19T05:14:27.059Z,12.10
2018-09-19T05:16:56.963Z,11.27
2018-09-19T05:19:26.682Z,16.47
2018-09-19T05:21:56.460Z,11.40
2018-09-19T05:24:26.149Z,12.17
2018-09-19T05:26:55.913Z,13.50
2018-09-19T05:29:25.722Z,11.43
2018-09-19T05:31:55.708Z,12.70
2018-09-19T05:34:25.535Z,12.53
2018-09-19T05:36:55.253Z,12.80
2018-09-19T05:39:24.955Z,12.70
2018-09-19T05:41:54.671Z,10.50
2018-09-19T05:44:24.367Z,11.30
2018-09-19T05:46:54.200Z,11.50
2018-09-19T05:49:23.817Z,11.23
2018-09-19T05:51:53.833Z,11.97
2018-09-19T05:54:23.475Z,11.97
2018-09-19T05:56:53.106Z,10.47
2018-09-19T05:59:22.842Z,11.13
2018-09-19T06:01:52.583Z,10.47
2018-09-19T06:04:22.291Z,8.80
2018-09-19T06:09:54.181Z,8.60
2018-09-19T06:12:23.940Z,10.47
2018-09-19T06:14:53.647Z,11.70
2018-09-19T06:17:23.379Z,12.33
2018-09-19T06:19:53.089Z,10.73
2018-09-19T06:22:22.799Z,10.87
2018-09-19T06:24:52.472Z,9.23
2018-09-19T06:27:22.141Z,9.10
2018-09-19T06:29:51.827Z,10.17
2018-09-19T06:32:21.524Z,9.20
2018-09-19T06:34:51.217Z,8.77
2018-09-19T06:37:20.894Z,9.60
2018-09-19T06:39:50.683Z,9.13
2018-09-19T06:42:20.366Z,8.90
2018-09-19T06:44:50.082Z,8.53
2018-09-19T06:47:19.774Z,9.20
2018-09-19T06:49:49.460Z,8.60
2018-09-19T06:52:19.206Z,8.70
2018-09-19T06:54:49.034Z,8.10
2018-09-19T06:57:18.737Z,9.50
2018-09-19T06:59:48.520Z,8.77
2018-09-19T07:02:18.299Z,7.40
2018-09-19T07:04:48.011Z,9.23
2018-09-19T07:07:17.810Z,9.00
2018-09-19T07:09:47.518Z,9.33
2018-09-19T07:12:17.402Z,9.30
2018-09-19T07:14:47.046Z,8.93
2018-09-19T07:17:16.647Z,9.17
2018-09-19T07:19:46.428Z,10.70
2018-09-19T07:22:16.182Z,8.60
2018-09-19T07:24:45.914Z,8.50
2018-09-19T07:27:15.671Z,7.70
2018-09-19T07:29:45.472Z,8.90
2018-09-19T07:32:15.207Z,7.70
2018-09-19T07:34:44.905Z,8.17
2018-09-19T07:37:14.805Z,7.70
2018-09-19T07:39:44.577Z,7.67
2018-09-19T07:42:14.357Z,7.60
2018-09-19T07:44:44.105Z,6.87
2018-09-19T07:47:13.868Z,8.07
2018-09-19T07:49:43.847Z,6.37
2018-09-19T07:52:13.610Z,8.60
2018-09-19T07:54:43.474Z,6.37
2018-09-19T07:57:13.243Z,6.83
2018-09-19T07:59:42.991Z,6.43
2018-09-19T08:02:12.723Z,6.70
2018-09-19T08:04:42.463Z,7.77
2018-09-19T08:07:12.176Z,6.77
2018-09-19T08:09:41.880Z,8.33
2018-09-19T08:12:11.584Z,6.27
2018-09-19T08:14:41.486Z,6.90
2018-09-19T08:17:11.236Z,5.60
2018-09-19T08:19:40.997Z,6.17
2018-09-19T08:22:10.769Z,5.73
2018-09-19T08:24:40.501Z,5.97
2018-09-19T08:27:10.254Z,7.23
2018-09-19T08:29:40.011Z,6.17
2018-09-19T08:32:09.728Z,5.67
2018-09-19T08:34:39.474Z,6.77
2018-09-19T08:37:09.143Z,6.70
2018-09-19T08:39:38.866Z,5.53
2018-09-19T08:42:08.661Z,6.47
2018-09-19T08:44:38.210Z,6.23
2018-09-19T08:47:07.986Z,5.23
2018-09-19T08:49:37.733Z,6.10
2018-09-19T08:52:07.382Z,5.90
2018-09-19T08:54:37.129Z,5.83
2018-09-19T08:57:07.434Z,6.40
2018-09-19T08:59:37.531Z,5.33
2018-09-19T09:02:07.324Z,5.50
2018-09-19T09:04:37.091Z,5.73
2018-09-19T09:07:06.900Z,5.43
2018-09-19T09:09:36.623Z,4.87
2018-09-19T09:12:06.456Z,5.67
2018-09-19T09:14:36.171Z,5.20
2018-09-19T09:17:06.471Z,3.80
2018-09-19T09:19:36.206Z,5.00
2018-09-19T09:22:06.011Z,4.00
2018-09-19T09:24:35.715Z,5.17
2018-09-19T09:27:05.588Z,5.33
2018-09-19T09:29:35.299Z,4.77
2018-09-19T09:32:05.063Z,4.23
2018-09-19T09:34:34.840Z,5.20
2018-09-19T09:37:04.612Z,4.03
2018-09-19T09:39:34.494Z,5.00
2018-09-19T09:42:04.259Z,4.03
2018-09-19T09:44:34.125Z,3.80
2018-09-19T09:47:03.960Z,4.27
2018-09-19T09:49:33.626Z,4.20
2018-09-19T09:52:03.257Z,4.20
2018-09-19T09:54:33.017Z,4.30
2018-09-19T09:57:02.723Z,3.57
2018-09-19T09:59:32.452Z,4.67
2018-09-19T10:02:02.203Z,4.43
2018-09-19T10:04:32.014Z,9.40
2018-09-19T10:07:01.766Z,4.20
2018-09-19T10:09:31.584Z,4.90
2018-09-19T10:12:01.466Z,4.70
2018-09-19T10:14:31.274Z,4.33
2018-09-19T10:17:01.117Z,4.73
2018-09-19T10:19:31.501Z,4.10
2018-09-19T10:22:01.226Z,4.63
2018-09-19T10:24:30.954Z,5.00
2018-09-19T10:27:00.728Z,3.90
2018-09-19T10:29:30.472Z,3.43
2018-09-19T10:32:00.227Z,3.70
2018-09-19T10:34:29.977Z,3.50
2018-09-19T10:36:59.800Z,3.90
2018-09-19T10:39:29.429Z,3.40
2018-09-19T10:41:59.221Z,3.57
2018-09-19T10:44:28.993Z,4.10
2018-09-19T10:46:58.854Z,3.90
2018-09-19T10:49:28.730Z,4.17
2018-09-19T10:51:58.342Z,3.23
2018-09-19T10:54:28.204Z,3.43
2018-09-19T10:56:58.000Z,3.33
2018-09-19T10:59:27.795Z,3.80
2018-09-19T11:01:57.538Z,3.03
2018-09-19T11:04:27.218Z,3.83
2018-09-19T11:06:56.936Z,3.53
2018-09-19T11:09:26.682Z,3.60
2018-09-19T11:11:56.460Z,3.70
2018-09-19T11:14:26.406Z,3.83
2018-09-19T11:16:56.244Z,4.17
2018-09-19T11:19:26.015Z,4.13
2018-09-19T11:21:56.171Z,3.87
2018-09-19T11:24:26.049Z,3.47
2018-09-19T11:26:55.972Z,4.57
2018-09-19T11:29:25.811Z,4.03
2018-09-19T11:31:55.821Z,4.00
2018-09-19T11:34:25.731Z,3.60
2018-09-19T11:36:55.477Z,4.97
2018-09-19T11:39:25.292Z,4.10
2018-09-19T11:41:54.995Z,4.27
2018-09-19T11:44:24.831Z,3.23
2018-09-19T11:46:54.591Z,3.50
2018-09-19T11:49:24.399Z,3.77
2018-09-19T11:51:54.352Z,3.30
2018-09-19T11:54:24.041Z,3.20
2018-09-19T11:56:53.756Z,3.60
2018-09-19T11:59:23.627Z,3.20
2018-09-19T12:01:53.513Z,3.20
2018-09-19T12:04:23.271Z,2.97
2018-09-19T12:06:52.956Z,2.97
2018-09-19T12:09:22.852Z,3.77
2018-09-19T12:11:52.607Z,2.70
2018-09-19T12:14:22.412Z,3.33
2018-09-19T12:16:52.155Z,4.20
2018-09-19T12:19:21.999Z,4.93
2018-09-19T12:21:52.280Z,3.30
2018-09-19T12:24:22.466Z,3.30
2018-09-19T12:26:52.259Z,5.00
2018-09-19T12:29:22.094Z,4.10
2018-09-19T12:31:51.907Z,3.47
2018-09-19T12:34:21.592Z,2.93
2018-09-19T12:36:51.363Z,3.97
2018-09-19T12:39:21.090Z,2.47
2018-09-19T12:41:50.683Z,2.13
2018-09-19T12:44:20.559Z,2.87
2018-09-19T12:46:50.506Z,2.73
2018-09-19T12:49:20.187Z,3.37
2018-09-19T12:51:50.015Z,2.53
2018-09-19T12:54:19.840Z,2.60
2018-09-19T12:56:49.650Z,2.50
2018-09-19T12:59:19.553Z,2.50
2018-09-19T13:01:49.323Z,2.43
2018-09-19T13:04:19.058Z,2.43
2018-09-19T13:06:49.043Z,2.57
2018-09-19T13:09:18.941Z,2.87
2018-09-19T13:11:48.847Z,3.67
2018-09-19T13:14:18.583Z,2.73
2018-09-19T13:16:48.257Z,2.60
2018-09-19T13:19:17.978Z,2.50
2018-09-19T13:21:47.667Z,2.80
2018-09-19T13:24:17.449Z,2.33
2018-09-19T13:26:47.594Z,2.63
2018-09-19T13:29:17.348Z,2.60
2018-09-19T13:31:47.190Z,3.80
2018-09-19T13:34:16.896Z,3.57
2018-09-19T13:36:46.642Z,2.53
2018-09-19T13:39:16.324Z,2.50
2018-09-19T13:41:46.422Z,2.73
2018-09-19T13:44:16.316Z,3.30
2018-09-19T13:46:46.159Z,3.47
2018-09-19T13:50:30.486Z,3.10
2018-09-19T13:53:00.205Z,2.97
2018-09-19T13:56:58.905Z,3.50
2018-09-19T13:59:29.331Z,2.80
2018-09-19T14:01:59.112Z,6.33
2018-09-19T14:04:28.989Z,7.87
2018-09-19T14:06:58.879Z,4.97
2018-09-19T14:09:28.638Z,4.73
2018-09-19T14:11:58.509Z,3.20
2018-09-19T14:14:28.347Z,3.30
2018-09-19T14:16:58.293Z,3.77
2018-09-19T14:19:27.888Z,3.60
2018-09-19T14:21:57.792Z,3.50
2018-09-19T14:24:27.691Z,3.47
2018-09-19T14:26:57.599Z,3.67
2018-09-19T14:32:37.063Z,3.73
2018-09-19T14:35:06.832Z,3.43
2018-09-19T14:37:36.583Z,4.13
2018-09-19T14:40:06.452Z,2.80
2018-09-19T14:42:36.655Z,3.80
2018-09-19T14:45:06.960Z,3.80
2018-09-19T14:47:36.584Z,3.90
2018-09-19T14:50:06.626Z,5.70
2018-09-19T14:52:37.470Z,5.30
2018-09-19T14:55:07.413Z,4.77
2018-09-19T14:57:37.133Z,6.50
2018-09-19T15:00:07.197Z,4.40
2018-09-19T15:02:37.006Z,4.43
2018-09-19T15:05:06.963Z,4.10
2018-09-19T15:07:36.856Z,4.93
2018-09-19T15:10:06.679Z,4.00
2018-09-19T15:12:36.519Z,4.60
2018-09-19T15:15:06.357Z,3.77
2018-09-19T15:17:36.213Z,4.20
2018-09-19T15:20:06.087Z,3.60
2018-09-19T15:22:35.936Z,3.20
2018-09-19T15:25:06.044Z,3.40
2018-09-19T15:27:35.750Z,5.37
2018-09-19T15:30:05.820Z,5.60
2018-09-19T15:32:35.670Z,7.37
2018-09-19T15:35:05.964Z,4.60
2018-09-19T15:37:36.068Z,4.40
2018-09-19T15:40:06.140Z,3.90
2018-09-19T15:42:36.389Z,5.00
2018-09-19T15:45:06.328Z,4.60
2018-09-19T15:47:36.246Z,4.87
2018-09-19T15:50:06.129Z,4.40
2018-09-19T15:52:36.141Z,4.00
2018-09-19T15:55:06.135Z,4.33
2018-09-19T15:57:35.977Z,4.13
2018-09-19T16:00:06.171Z,3.83
2018-09-19T16:02:35.889Z,4.27
2018-09-19T16:05:06.702Z,4.63
2018-09-19T16:07:36.533Z,4.43
2018-09-19T16:10:06.298Z,4.67
2018-09-19T16:12:37.194Z,4.70
2018-09-19T16:15:07.068Z,4.60
2018-09-19T16:17:36.806Z,4.23
2018-09-19T16:20:06.614Z,4.10
2018-09-19T16:22:37.367Z,4.43
2018-09-19T16:25:07.220Z,4.37
2018-09-19T16:27:36.955Z,3.80
2018-09-19T16:30:06.785Z,5.30
2018-09-19T16:32:36.503Z,6.07
2018-09-19T16:35:06.327Z,3.97
2018-09-19T16:37:37.116Z,3.90
2018-09-19T16:40:06.919Z,4.73
2018-09-19T16:42:37.426Z,3.30
2018-09-19T16:45:07.251Z,3.70
2018-09-19T16:47:37.011Z,4.40
2018-09-19T16:50:06.792Z,3.77
2018-09-19T16:52:36.573Z,3.07
2018-09-19T16:55:06.450Z,3.17
2018-09-19T16:57:36.093Z,3.30
2018-09-19T17:00:06.470Z,3.30
2018-09-19T17:02:36.333Z,3.53
2018-09-19T17:05:06.250Z,3.23
2018-09-19T17:07:36.108Z,5.07
2018-09-19T17:10:06.074Z,4.40
2018-09-19T17:12:35.802Z,3.50
2018-09-19T17:15:05.759Z,3.90
2018-09-19T17:17:35.569Z,3.30
2018-09-19T17:20:05.496Z,4.13
2018-09-19T17:22:35.112Z,3.20
2018-09-19T17:25:04.877Z,3.20
2018-09-19T17:27:34.661Z,3.63
2018-09-19T17:30:04.385Z,3.40
2018-09-19T17:32:34.152Z,4.47
2018-09-19T17:35:03.899Z,4.17
2018-09-19T17:37:33.558Z,2.90
2018-09-19T17:40:03.457Z,3.43
2018-09-19T17:42:33.132Z,3.60
2018-09-19T17:45:03.121Z,3.27
2018-09-19T17:47:33.003Z,3.80
2018-09-19T17:50:02.905Z,3.27
2018-09-19T17:52:32.792Z,4.53
2018-09-19T17:55:02.578Z,5.30
2018-09-19T17:57:32.290Z,8.40
2018-09-19T18:00:02.089Z,7.23
2018-09-19T18:02:31.674Z,7.00
2018-09-19T18:05:01.421Z,7.40
2018-09-19T18:07:31.193Z,6.67
2018-09-19T18:10:00.972Z,8.03
2018-09-19T18:12:30.798Z,5.10
2018-09-19T18:15:00.575Z,4.57
2018-09-19T18:17:30.356Z,3.73
2018-09-19T18:20:00.091Z,3.63
2018-09-19T18:22:29.901Z,3.77
2018-09-19T18:24:59.574Z,3.87
2018-09-19T18:27:29.186Z,4.30
2018-09-19T18:29:59.007Z,3.47
2018-09-19T18:32:28.565Z,4.77
2018-09-19T18:34:58.376Z,4.30
2018-09-19T18:37:28.152Z,4.50
2018-09-19T18:39:57.968Z,3.70
2018-09-19T18:42:28.344Z,3.40
2018-09-19T18:44:58.237Z,3.50
2018-09-19T18:47:27.893Z,4.53
2018-09-19T18:49:57.694Z,3.93
2018-09-19T18:52:27.378Z,4.37
2018-09-19T18:54:56.992Z,4.60
2018-09-19T18:57:26.679Z,3.87
2018-09-19T18:59:56.459Z,5.10
2018-09-19T19:02:26.102Z,3.93
2018-09-19T19:04:56.150Z,4.37
2018-09-19T19:07:26.004Z,5.57
2018-09-19T19:09:55.648Z,4.83
2018-09-19T19:12:25.474Z,4.17
2018-09-19T19:14:55.341Z,4.67
2018-09-19T19:17:25.045Z,4.73
2018-09-19T19:19:54.775Z,5.37
2018-09-19T19:22:24.431Z,5.53
2018-09-19T19:24:54.314Z,6.67
2018-09-19T19:27:24.031Z,6.30
2018-09-19T19:29:53.900Z,6.60
2018-09-19T19:32:23.716Z,6.47
2018-09-19T19:34:54.089Z,6.30
2018-09-19T19:37:23.795Z,6.53
2018-09-19T19:39:53.546Z,6.93
2018-09-19T19:42:23.374Z,6.70
2018-09-19T19:44:53.576Z,6.60
2018-09-19T19:47:23.306Z,8.07
2018-09-19T19:49:53.050Z,7.07
2018-09-19T19:52:22.664Z,7.90
2018-09-19T19:54:52.469Z,7.30
2018-09-19T19:57:22.235Z,7.07
2018-09-19T19:59:52.077Z,7.63
2018-09-19T20:02:21.856Z,6.50
2018-09-19T20:04:51.723Z,6.87
2018-09-19T20:07:21.545Z,7.40
2018-09-19T20:09:51.219Z,7.00
2018-09-19T20:12:21.023Z,6.50
2018-09-19T20:14:50.761Z,6.80
2018-09-19T20:17:20.483Z,6.10
2018-09-19T20:19:50.326Z,6.70
2018-09-19T20:22:20.073Z,7.90
2018-09-19T20:24:49.887Z,6.00
2018-09-19T20:27:19.625Z,7.43
2018-09-19T20:29:49.367Z,7.10
2018-09-19T20:32:18.990Z,6.87
2018-09-19T20:34:48.650Z,6.13
2018-09-19T20:37:18.423Z,6.83
2018-09-19T20:39:48.181Z,5.60
2018-09-19T20:42:17.870Z,6.30
2018-09-19T20:44:47.905Z,6.73
2018-09-19T20:47:18.286Z,5.03
2018-09-19T20:49:48.039Z,5.50
2018-09-19T20:52:17.945Z,5.90
2018-09-19T20:54:47.757Z,5.83
2018-09-19T20:57:17.589Z,5.20
2018-09-19T20:59:47.351Z,5.17
2018-09-19T21:02:17.087Z,5.90
2018-09-19T21:04:46.917Z,5.57
2018-09-19T21:07:16.665Z,5.80
2018-09-19T21:09:46.263Z,5.07
2018-09-19T21:12:15.999Z,4.00
2018-09-19T21:14:45.648Z,5.17
2018-09-19T21:17:15.466Z,5.50
2018-09-19T21:19:45.390Z,5.97
2018-09-19T21:22:15.409Z,5.60
2018-09-19T21:24:44.866Z,5.17
2018-09-19T21:27:14.639Z,5.53
2018-09-19T21:29:44.360Z,5.90
2018-09-19T21:32:14.225Z,6.07
2018-09-19T21:34:43.966Z,5.70
2018-09-19T21:37:13.813Z,5.40
2018-09-19T21:39:43.551Z,5.30
2018-09-19T21:42:13.458Z,6.00
2018-09-19T21:44:43.169Z,6.23
2018-09-19T21:47:12.945Z,5.13
2018-09-19T21:49:43.123Z,6.30
2018-09-19T21:52:12.789Z,5.40
2018-09-19T21:54:42.586Z,5.37
2018-09-19T21:57:12.356Z,5.30
2018-09-19T21:59:41.889Z,5.13
2018-09-19T22:02:11.614Z,5.37
2018-09-19T22:04:41.511Z,5.27
2018-09-19T22:07:11.213Z,4.67
2018-09-19T22:09:41.081Z,5.90
2018-09-19T22:12:11.883Z,5.10
2018-09-19T22:14:43.122Z,5.77
2018-09-19T22:17:13.013Z,5.30
2018-09-19T22:19:42.733Z,4.70
2018-09-19T22:22:13.154Z,5.33
2018-09-19T22:24:42.894Z,5.00
2018-09-19T22:27:12.696Z,5.10
2018-09-19T22:29:42.642Z,4.43
2018-09-19T22:32:12.391Z,4.00
2018-09-19T22:34:42.191Z,4.43
2018-09-19T22:37:12.022Z,4.60
2018-09-19T22:39:41.808Z,4.60
2018-09-19T22:42:11.604Z,3.90
2018-09-19T22:44:41.248Z,4.43
2018-09-19T22:47:11.036Z,4.67
2018-09-19T22:49:40.791Z,3.70
2018-09-19T22:52:11.100Z,4.57
2018-09-19T22:54:40.914Z,4.70
2018-09-19T22:57:10.671Z,4.10
2018-09-19T22:59:40.583Z,4.40
2018-09-19T23:02:10.373Z,4.50
2018-09-19T23:04:40.091Z,4.40
2018-09-19T23:07:09.940Z,4.27
2018-09-19T23:09:39.677Z,5.17
2018-09-19T23:12:09.468Z,3.93
2018-09-19T23:14:39.274Z,5.13
2018-09-19T23:17:09.161Z,3.70
2018-09-19T23:19:38.936Z,4.20
2018-09-19T23:22:08.676Z,4.00
2018-09-19T23:24:38.570Z,4.80
2018-09-19T23:31:38.821Z,4.40
2018-09-19T23:34:08.518Z,5.27
2018-09-19T23:36:38.292Z,4.07
2018-09-19T23:39:10.437Z,4.90
2018-09-19T23:41:40.245Z,3.93
2018-09-19T23:44:09.897Z,4.90
2018-09-19T23:46:39.985Z,4.73
2018-09-19T23:49:10.130Z,4.20
2018-09-19T23:51:39.815Z,4.77
2018-09-19T23:54:10.091Z,4.33
2018-09-19T23:56:39.942Z,4.53
2018-09-19T23:59:09.860Z,3.83
